createdAt,value
2024-04-18T00:02:04.531Z,3.72
2024-04-18T00:04:32.475Z,4.70
2024-04-18T00:07:00.089Z,4.80
2024-04-18T00:09:27.983Z,4.45
2024-04-18T00:11:55.693Z,3.65
2024-04-18T00:14:23.579Z,4.47
2024-04-18T00:16:51.074Z,5.25
2024-04-18T00:19:22.662Z,6.20
2024-04-18T00:21:50.117Z,4.50
2024-04-18T00:24:18.042Z,3.95
2024-04-18T00:26:45.518Z,4.90
2024-04-18T00:29:13.335Z,5.57
2024-04-18T00:31:40.868Z,4.88
2024-04-18T00:34:08.815Z,7.65
2024-04-18T00:36:36.281Z,3.40
2024-04-18T00:39:04.130Z,4.18
2024-04-18T00:41:31.601Z,4.95
2024-04-18T00:44:02.521Z,4.75
2024-04-18T00:46:32.033Z,3.97
2024-04-18T00:48:59.989Z,4.30
2024-04-18T00:51:28.030Z,3.75
2024-04-18T00:53:57.332Z,4.82
2024-04-18T00:56:24.961Z,5.38
2024-04-18T00:58:53.972Z,3.90
2024-04-18T01:01:22.784Z,4.70
2024-04-18T01:03:51.170Z,5.05
2024-04-18T01:06:18.794Z,4.57
2024-04-18T01:08:46.683Z,4.68
2024-04-18T01:11:14.156Z,4.20
2024-04-18T01:13:42.135Z,4.45
2024-04-18T01:16:09.647Z,5.72
2024-04-18T01:18:37.560Z,4.68
2024-04-18T01:21:05.263Z,5.45
2024-04-18T01:23:33.200Z,5.57
2024-04-18T01:26:00.655Z,6.00
2024-04-18T01:28:28.543Z,5.03
2024-04-18T01:30:55.989Z,5.07
2024-04-18T01:33:26.360Z,7.32
2024-04-18T01:35:54.182Z,5.47
2024-04-18T01:38:22.224Z,4.40
2024-04-18T01:40:49.671Z,5.85
2024-04-18T01:43:17.560Z,5.85
2024-04-18T01:45:45.214Z,5.45
2024-04-18T01:48:13.693Z,5.65
2024-04-18T01:50:41.291Z,5.00
2024-04-18T01:53:09.146Z,5.80
2024-04-18T01:55:36.640Z,4.43
2024-04-18T01:58:04.688Z,5.07
2024-04-18T02:00:32.429Z,6.88
2024-04-18T02:03:00.438Z,6.22
2024-04-18T02:05:27.938Z,4.80
2024-04-18T02:07:56.005Z,5.80
2024-04-18T02:10:23.540Z,5.43
2024-04-18T02:12:51.821Z,5.63
2024-04-18T02:15:19.318Z,4.13
2024-04-18T02:17:50.109Z,5.95
2024-04-18T02:20:17.722Z,4.82
2024-04-18T02:22:45.630Z,5.15
2024-04-18T02:25:13.672Z,5.28
2024-04-18T02:27:43.395Z,4.90
2024-04-18T02:30:12.590Z,5.72
2024-04-18T02:32:40.856Z,6.35
2024-04-18T02:35:08.632Z,7.55
2024-04-18T02:37:36.587Z,5.18
2024-04-18T02:40:04.113Z,5.72
2024-04-18T02:42:33.156Z,6.88
2024-04-18T02:45:03.419Z,7.00
2024-04-18T02:47:31.536Z,8.00
2024-04-18T02:49:59.149Z,7.00
2024-04-18T02:52:27.056Z,5.40
2024-04-18T02:54:57.333Z,5.30
2024-04-18T02:57:25.329Z,5.93
2024-04-18T02:59:52.839Z,7.25
2024-04-18T03:02:20.716Z,7.65
2024-04-18T03:04:48.233Z,6.15
2024-04-18T03:07:16.030Z,7.20
2024-04-18T03:09:43.901Z,5.43
2024-04-18T03:12:11.827Z,5.13
2024-04-18T03:14:40.564Z,8.18
2024-04-18T03:17:09.390Z,6.55
2024-04-18T03:19:36.879Z,6.97
2024-04-18T03:22:04.835Z,7.30
2024-04-18T03:24:32.379Z,6.03
2024-04-18T03:27:00.300Z,6.40
2024-04-18T03:29:27.761Z,8.85
2024-04-18T03:31:55.747Z,6.30
2024-04-18T03:34:23.324Z,6.30
2024-04-18T03:36:58.573Z,8.82
2024-04-18T03:39:29.795Z,7.43
2024-04-18T03:41:57.743Z,6.63
2024-04-18T03:44:25.361Z,10.68
2024-04-18T03:46:53.237Z,8.18
2024-04-18T03:49:20.650Z,6.90
2024-04-18T03:51:48.537Z,7.93
2024-04-18T03:54:16.126Z,8.05
2024-04-18T03:56:44.000Z,7.90
2024-04-18T03:59:11.470Z,8.70
2024-04-18T04:01:39.457Z,7.43
2024-04-18T04:04:07.870Z,8.35
2024-04-18T04:06:35.885Z,8.45
2024-04-18T04:09:03.420Z,10.02
2024-04-18T04:11:31.330Z,7.53
2024-04-18T04:14:00.856Z,8.07
2024-04-18T04:16:29.979Z,9.48
2024-04-18T04:18:57.770Z,9.32
2024-04-18T04:21:25.756Z,7.38
2024-04-18T04:23:53.568Z,11.63
2024-04-18T04:26:21.521Z,8.10
2024-04-18T04:28:50.369Z,9.65
2024-04-18T04:31:18.350Z,8.30
2024-04-18T04:33:45.880Z,9.80
2024-04-18T04:36:13.768Z,10.48
2024-04-18T04:38:41.283Z,13.07
2024-04-18T04:41:09.104Z,10.75
2024-04-18T04:43:36.651Z,12.43
2024-04-18T04:46:04.558Z,13.23
2024-04-18T04:48:35.375Z,11.15
2024-04-18T04:51:05.036Z,11.63
2024-04-18T04:53:32.600Z,12.13
2024-04-18T04:56:00.595Z,12.13
2024-04-18T04:58:28.051Z,10.90
2024-04-18T05:00:57.231Z,11.55
2024-04-18T05:03:24.924Z,12.27
2024-04-18T05:05:53.044Z,9.75
2024-04-18T05:08:20.548Z,12.82
2024-04-18T05:10:51.191Z,10.50
2024-04-18T05:13:18.763Z,11.05
2024-04-18T05:15:46.841Z,15.32
2024-04-18T05:18:15.104Z,12.13
2024-04-18T05:20:43.174Z,13.55
2024-04-18T05:23:10.836Z,14.48
2024-04-18T05:25:39.523Z,16.63
2024-04-18T05:28:15.606Z,12.15
2024-04-18T05:31:01.809Z,15.15
2024-04-18T05:33:30.100Z,14.77
2024-04-18T05:35:58.459Z,12.95
2024-04-18T05:38:26.588Z,11.90
2024-04-18T05:40:54.661Z,13.70
2024-04-18T05:43:22.168Z,11.95
2024-04-18T05:45:50.996Z,15.95
2024-04-18T05:48:19.942Z,10.93
2024-04-18T05:50:50.903Z,11.82
2024-04-18T05:53:19.868Z,17.23
2024-04-18T05:55:48.453Z,14.02
2024-04-18T05:58:17.447Z,13.68
2024-04-18T06:00:46.464Z,13.60
2024-04-18T06:03:14.088Z,15.57
2024-04-18T06:05:42.064Z,12.13
2024-04-18T06:08:09.535Z,13.48
2024-04-18T06:10:38.551Z,12.10
2024-04-18T06:13:08.946Z,11.52
2024-04-18T06:15:37.140Z,12.00
2024-04-18T06:18:04.940Z,12.52
2024-04-18T06:20:32.921Z,16.30
2024-04-18T06:23:00.368Z,15.23
2024-04-18T06:25:30.333Z,13.88
2024-04-18T06:27:57.794Z,14.43
2024-04-18T06:30:25.705Z,13.38
2024-04-18T06:32:53.309Z,14.50
2024-04-18T06:35:21.275Z,17.15
2024-04-18T06:37:49.289Z,13.82
2024-04-18T06:40:17.250Z,13.25
2024-04-18T06:42:45.749Z,12.65
2024-04-18T06:45:14.060Z,14.73
2024-04-18T06:47:41.853Z,14.60
2024-04-18T06:50:09.960Z,14.60
2024-04-18T06:52:39.993Z,12.65
2024-04-18T06:55:07.985Z,12.57
2024-04-18T06:57:35.498Z,15.30
2024-04-18T07:00:03.789Z,13.35
2024-04-18T07:02:32.588Z,13.35
2024-04-18T07:05:00.636Z,18.42
2024-04-18T07:07:31.059Z,11.45
2024-04-18T07:10:00.004Z,14.98
2024-04-18T07:12:27.496Z,13.65
2024-04-18T07:14:55.388Z,15.75
2024-04-18T07:17:22.880Z,11.20
2024-04-18T07:19:50.789Z,12.95
2024-04-18T07:22:18.286Z,13.25
2024-04-18T07:24:46.299Z,12.43
2024-04-18T07:27:13.783Z,11.43
2024-04-18T07:29:41.650Z,10.80
2024-04-18T07:32:09.304Z,11.80
2024-04-18T07:34:37.160Z,17.20
2024-04-18T07:37:04.644Z,14.10
2024-04-18T07:39:32.594Z,12.20
2024-04-18T07:42:00.111Z,11.70
2024-04-18T07:44:28.042Z,14.10
2024-04-18T07:46:55.596Z,9.80
2024-04-18T07:49:23.571Z,12.52
2024-04-18T07:51:51.609Z,10.73
2024-04-18T07:54:21.531Z,9.93
2024-04-18T07:56:49.452Z,8.15
2024-04-18T07:59:18.635Z,9.85
2024-04-18T08:01:48.003Z,6.85
2024-04-18T08:04:34.885Z,6.88
2024-04-18T08:07:07.367Z,5.90
2024-04-18T08:09:40.194Z,7.82
2024-04-18T08:12:24.086Z,8.43
2024-04-18T08:14:58.765Z,7.60
2024-04-18T08:17:29.679Z,6.47
2024-04-18T08:19:57.611Z,7.22
2024-04-18T08:22:27.655Z,5.45
2024-04-18T08:24:55.472Z,7.00
2024-04-18T08:27:23.032Z,6.07
2024-04-18T08:29:50.978Z,5.57
2024-04-18T08:32:18.464Z,6.75
2024-04-18T08:34:48.418Z,5.55
2024-04-18T08:37:16.217Z,8.32
2024-04-18T08:39:46.782Z,5.07
2024-04-18T08:42:14.384Z,4.85
2024-04-18T08:44:45.317Z,6.40
2024-04-18T08:47:16.810Z,5.13
2024-04-18T08:49:46.260Z,6.03
2024-04-18T08:52:14.542Z,5.75
2024-04-18T08:54:42.511Z,5.60
2024-04-18T08:57:11.739Z,5.93
2024-04-18T08:59:39.604Z,6.22
2024-04-18T09:02:08.138Z,5.20
2024-04-18T09:04:37.676Z,4.25
2024-04-18T09:07:05.407Z,4.15
2024-04-18T09:09:34.173Z,5.60
2024-04-18T09:12:04.367Z,5.05
2024-04-18T09:14:34.123Z,5.28
2024-04-18T09:17:01.569Z,4.68
2024-04-18T09:19:29.503Z,6.25
2024-04-18T09:22:02.004Z,5.03
2024-04-18T09:24:30.612Z,6.18
2024-04-18T09:26:59.455Z,5.43
2024-04-18T09:29:27.380Z,5.72
2024-04-18T09:31:58.728Z,5.93
2024-04-18T09:34:27.318Z,5.75
2024-04-18T09:36:55.581Z,6.60
2024-04-18T09:39:31.357Z,6.68
2024-04-18T09:42:09.677Z,4.53
2024-04-18T09:44:43.565Z,6.18
2024-04-18T09:47:11.603Z,5.25
2024-04-18T09:49:41.494Z,5.20
2024-04-18T09:52:09.627Z,17.23
2024-04-18T09:54:38.996Z,5.20
2024-04-18T09:57:07.894Z,5.57
2024-04-18T09:59:39.561Z,4.70
2024-04-18T10:02:15.598Z,4.45
2024-04-18T10:04:44.658Z,4.93
2024-04-18T10:07:17.261Z,4.88
2024-04-18T10:09:48.606Z,6.27
2024-04-18T10:12:16.289Z,5.57
2024-04-18T10:14:44.280Z,5.55
2024-04-18T10:17:32.465Z,5.55
2024-04-18T10:20:01.370Z,6.80
2024-04-18T10:22:45.315Z,7.43
2024-04-18T10:25:20.973Z,4.80
2024-04-18T10:27:48.647Z,5.90
2024-04-18T10:30:17.699Z,6.40
2024-04-18T10:32:49.524Z,7.13
2024-04-18T10:35:18.686Z,6.60
2024-04-18T10:37:52.577Z,4.45
2024-04-18T10:40:20.474Z,6.85
2024-04-18T10:42:50.701Z,4.35
2024-04-18T10:45:18.739Z,4.03
2024-04-18T10:47:49.636Z,3.75
2024-04-18T10:50:19.317Z,3.50
2024-04-18T10:52:48.685Z,4.85
2024-04-18T10:55:16.583Z,4.60
2024-04-18T10:57:44.171Z,5.25
2024-04-18T11:00:17.666Z,3.10
2024-04-18T11:02:45.276Z,4.68
2024-04-18T11:05:13.188Z,2.63
2024-04-18T11:07:41.089Z,3.13
2024-04-18T11:10:09.115Z,3.72
2024-04-18T11:12:39.545Z,2.67
2024-04-18T11:15:07.632Z,3.40
2024-04-18T11:17:38.667Z,2.90
2024-04-18T11:20:10.469Z,3.33
2024-04-18T11:22:39.794Z,2.75
2024-04-18T11:25:08.738Z,2.42
2024-04-18T11:27:37.348Z,4.47
2024-04-18T11:30:07.453Z,2.55
2024-04-18T11:32:35.104Z,3.70
2024-04-18T11:35:11.427Z,3.08
2024-04-18T11:37:43.181Z,2.97
2024-04-18T11:40:11.614Z,3.65
2024-04-18T11:42:39.110Z,3.92
2024-04-18T11:47:35.240Z,3.97
2024-04-18T11:50:03.329Z,3.38
2024-04-18T11:52:30.902Z,3.15
2024-04-18T11:54:58.837Z,2.97
2024-04-18T11:57:26.313Z,2.72
2024-04-18T11:59:54.171Z,3.05
2024-04-18T12:02:21.638Z,4.47
2024-04-18T12:04:50.257Z,3.78
2024-04-18T12:07:17.734Z,5.40
2024-04-18T12:09:48.019Z,3.80
2024-04-18T12:12:15.617Z,3.60
2024-04-18T12:14:48.470Z,3.38
2024-04-18T12:17:16.431Z,3.43
2024-04-18T12:19:45.056Z,5.13
2024-04-18T12:22:17.714Z,2.53
2024-04-18T12:24:45.620Z,3.00
2024-04-18T12:27:13.082Z,2.55
2024-04-18T12:29:41.015Z,2.50
2024-04-18T12:32:09.294Z,3.85
2024-04-18T12:34:37.292Z,3.72
2024-04-18T12:37:05.042Z,5.25
2024-04-18T12:39:33.469Z,3.70
2024-04-18T12:42:01.886Z,5.97
2024-04-18T12:44:31.382Z,3.78
2024-04-18T12:46:59.215Z,2.85
2024-04-18T12:49:27.213Z,2.55
2024-04-18T12:51:55.409Z,7.57
2024-04-18T12:54:23.322Z,3.13
2024-04-18T12:56:51.365Z,2.08
2024-04-18T12:59:19.248Z,4.88
2024-04-18T13:01:47.612Z,2.20
2024-04-18T13:04:15.574Z,2.70
2024-04-18T13:06:43.171Z,2.83
2024-04-18T13:09:11.128Z,3.40
2024-04-18T13:11:38.645Z,4.38
2024-04-18T13:14:06.736Z,2.78
2024-04-18T13:16:34.900Z,4.47
2024-04-18T13:19:02.786Z,3.45
2024-04-18T13:21:30.299Z,6.07
2024-04-18T13:23:58.210Z,3.38
2024-04-18T13:26:25.671Z,4.07
2024-04-18T13:28:53.486Z,4.00
2024-04-18T13:31:21.019Z,5.25
2024-04-18T13:33:54.174Z,4.80
2024-04-18T13:36:26.513Z,4.00
2024-04-18T13:38:54.683Z,4.65
2024-04-18T13:41:22.194Z,6.57
2024-04-18T13:43:50.096Z,5.85
2024-04-18T13:46:17.732Z,5.45
2024-04-18T13:48:45.686Z,3.22
2024-04-18T13:51:13.187Z,4.20
2024-04-18T13:53:41.110Z,4.07
2024-04-18T13:56:09.079Z,3.13
2024-04-18T13:58:37.052Z,4.63
2024-04-18T14:01:04.750Z,6.03
2024-04-18T14:03:33.025Z,6.22
2024-04-18T14:06:00.759Z,4.75
2024-04-18T14:08:28.721Z,4.05
2024-04-18T14:10:56.989Z,3.92
2024-04-18T14:13:24.844Z,7.85
2024-04-18T14:16:12.060Z,5.07
2024-04-18T14:18:52.924Z,3.90
2024-04-18T14:21:24.202Z,3.25
2024-04-18T14:23:52.103Z,3.42
2024-04-18T14:26:19.892Z,2.90
2024-04-18T14:28:47.842Z,2.60
2024-04-18T14:31:15.496Z,3.35
2024-04-18T14:33:43.578Z,4.07
2024-04-18T14:36:11.158Z,3.67
2024-04-18T14:38:39.178Z,3.78
2024-04-18T14:41:11.763Z,2.75
2024-04-18T14:43:40.625Z,3.00
2024-04-18T14:46:08.136Z,2.97
2024-04-18T14:48:37.530Z,3.33
2024-04-18T14:51:06.178Z,6.05
2024-04-18T14:53:34.043Z,2.72
2024-04-18T14:56:01.505Z,3.90
2024-04-18T14:58:29.388Z,3.60
2024-04-18T15:00:56.987Z,4.40
2024-04-18T15:03:25.167Z,4.75
2024-04-18T15:06:01.969Z,2.38
2024-04-18T15:08:29.930Z,3.63
2024-04-18T15:10:57.826Z,3.15
2024-04-18T15:13:25.663Z,2.60
2024-04-18T15:15:53.138Z,4.90
2024-04-18T15:18:25.199Z,2.75
2024-04-18T15:20:53.719Z,5.45
2024-04-18T15:23:21.596Z,2.92
2024-04-18T15:25:49.334Z,3.45
2024-04-18T15:28:17.960Z,2.28
2024-04-18T15:30:45.696Z,2.90
2024-04-18T15:33:13.926Z,8.75
2024-04-18T15:35:41.489Z,1.58
2024-04-18T15:38:09.366Z,2.55
2024-04-18T15:40:36.887Z,2.38
2024-04-18T15:43:06.670Z,2.40
2024-04-18T15:45:40.879Z,5.40
2024-04-18T15:48:09.212Z,2.75
2024-04-18T15:50:36.761Z,3.15
2024-04-18T15:53:04.771Z,2.67
2024-04-18T15:55:32.640Z,2.67
2024-04-18T15:58:03.859Z,3.67
2024-04-18T16:00:31.449Z,3.83
2024-04-18T16:02:59.405Z,5.05
2024-04-18T16:05:27.094Z,2.85
2024-04-18T16:07:57.929Z,3.20
2024-04-18T16:10:25.407Z,3.55
2024-04-18T16:12:53.349Z,2.95
2024-04-18T16:15:21.436Z,3.53
2024-04-18T16:17:49.375Z,4.32
2024-04-18T16:20:16.954Z,4.15
2024-04-18T16:22:45.338Z,2.85
2024-04-18T16:25:12.901Z,2.72
2024-04-18T16:27:40.837Z,3.58
2024-04-18T16:30:08.913Z,3.35
2024-04-18T16:32:37.353Z,3.45
2024-04-18T16:35:05.472Z,5.47
2024-04-18T16:37:36.492Z,3.65
2024-04-18T16:40:04.089Z,3.17
2024-04-18T16:42:31.997Z,8.02
2024-04-18T16:44:59.496Z,3.22
2024-04-18T16:47:27.540Z,4.20
2024-04-18T16:49:55.107Z,2.83
2024-04-18T16:52:22.989Z,4.22
2024-04-18T16:54:52.041Z,5.32
2024-04-18T16:57:22.941Z,3.28
2024-04-18T16:59:50.442Z,7.25
2024-04-18T17:02:18.336Z,3.03
2024-04-18T17:04:46.090Z,4.57
2024-04-18T17:07:18.294Z,3.03
2024-04-18T17:09:45.962Z,2.88
2024-04-18T17:12:13.862Z,3.20
2024-04-18T17:14:41.329Z,4.25
2024-04-18T17:17:09.272Z,3.63
2024-04-18T17:19:36.747Z,2.70
2024-04-18T17:22:04.797Z,4.15
2024-04-18T17:24:32.277Z,1.90
2024-04-18T17:27:01.800Z,3.47
2024-04-18T17:29:29.937Z,6.43
2024-04-18T17:31:57.913Z,4.03
2024-04-18T17:34:25.740Z,3.60
2024-04-18T17:36:53.658Z,3.80
2024-04-18T17:39:21.132Z,3.08
2024-04-18T17:41:49.084Z,3.85
2024-04-18T17:44:17.166Z,4.32
2024-04-18T17:46:45.064Z,3.00
2024-04-18T17:49:12.592Z,4.80
2024-04-18T17:51:40.914Z,2.88
2024-04-18T17:54:09.132Z,3.58
2024-04-18T17:56:36.984Z,3.15
2024-04-18T17:59:04.722Z,4.50
2024-04-18T18:01:32.679Z,3.47
2024-04-18T18:04:00.297Z,4.40
2024-04-18T18:06:28.330Z,4.03
2024-04-18T18:08:55.828Z,3.22
2024-04-18T18:11:23.804Z,6.90
2024-04-18T18:13:53.647Z,5.22
2024-04-18T18:16:21.852Z,3.67
2024-04-18T18:18:50.587Z,3.03
2024-04-18T18:21:18.598Z,4.47
2024-04-18T18:23:47.581Z,4.95
2024-04-18T18:26:15.382Z,3.60
2024-04-18T18:28:42.954Z,3.13
2024-04-18T18:31:13.916Z,3.95
2024-04-18T18:33:44.550Z,5.18
2024-04-18T18:36:14.251Z,3.42
2024-04-18T18:38:42.297Z,6.32
2024-04-18T18:41:11.024Z,4.38
2024-04-18T18:43:38.559Z,3.92
2024-04-18T18:46:06.509Z,4.97
2024-04-18T18:48:34.102Z,4.07
2024-04-18T18:51:02.124Z,4.10
2024-04-18T18:53:29.683Z,5.38
2024-04-18T18:55:57.652Z,4.78
2024-04-18T18:58:25.085Z,3.88
2024-04-18T19:00:53.155Z,3.92
2024-04-18T19:03:20.791Z,5.57
2024-04-18T19:05:52.677Z,3.28
2024-04-18T19:08:20.384Z,3.30
2024-04-18T19:10:48.388Z,2.38
2024-04-18T19:13:15.902Z,4.35
2024-04-18T19:15:44.586Z,7.30
2024-04-18T19:18:12.084Z,3.60
2024-04-18T19:20:39.992Z,6.50
2024-04-18T19:23:07.497Z,9.20
2024-04-18T19:25:36.640Z,8.65
2024-04-18T19:28:05.532Z,7.40
2024-04-18T19:30:33.417Z,8.38
2024-04-18T19:33:01.034Z,4.93
2024-04-18T19:35:29.106Z,5.82
2024-04-18T19:37:58.917Z,3.42
2024-04-18T19:40:26.824Z,9.30
2024-04-18T19:42:54.466Z,4.43
2024-04-18T19:45:22.391Z,4.47
2024-04-18T19:47:50.057Z,4.07
2024-04-18T19:50:18.086Z,5.38
2024-04-18T19:52:45.798Z,7.57
2024-04-18T19:55:13.755Z,4.40
2024-04-18T19:57:41.552Z,4.55
2024-04-18T20:00:11.905Z,5.07
2024-04-18T20:02:42.583Z,4.65
2024-04-18T20:05:10.564Z,4.55
2024-04-18T20:07:38.023Z,4.60
2024-04-18T20:10:06.545Z,4.45
2024-04-18T20:12:34.092Z,4.30
2024-04-18T20:15:06.366Z,4.38
2024-04-18T20:17:34.265Z,7.22
2024-04-18T20:20:02.293Z,7.85
2024-04-18T20:22:29.857Z,7.05
2024-04-18T20:24:57.755Z,6.45
2024-04-18T20:27:26.557Z,4.72
2024-04-18T20:29:55.423Z,4.90
2024-04-18T20:32:27.230Z,8.23
2024-04-18T20:34:55.874Z,4.65
2024-04-18T20:37:25.068Z,4.45
2024-04-18T20:39:57.617Z,4.93
2024-04-18T20:42:27.328Z,5.38
2024-04-18T20:44:58.209Z,4.13
2024-04-18T20:47:25.689Z,4.82
2024-04-18T20:49:53.536Z,6.13
2024-04-18T20:52:21.068Z,4.75
2024-04-18T20:54:49.715Z,4.28
2024-04-18T20:57:17.282Z,3.90
2024-04-18T20:59:45.187Z,4.05
2024-04-18T21:02:12.672Z,6.13
2024-04-18T21:04:40.537Z,7.57
2024-04-18T21:07:08.028Z,5.68
2024-04-18T21:09:35.916Z,4.93
2024-04-18T21:12:03.713Z,3.80
2024-04-18T21:14:31.528Z,4.85
2024-04-18T21:16:58.951Z,5.63
2024-04-18T21:19:26.876Z,5.90
2024-04-18T21:21:54.515Z,4.18
2024-04-18T21:24:22.507Z,3.75
2024-04-18T21:26:50.100Z,6.07
2024-04-18T21:29:17.924Z,6.15
2024-04-18T21:31:45.394Z,4.47
2024-04-18T21:34:13.395Z,5.85
2024-04-18T21:36:41.153Z,5.05
2024-04-18T21:39:09.251Z,3.92
2024-04-18T21:41:41.930Z,4.25
2024-04-18T21:44:12.558Z,4.47
2024-04-18T21:46:40.099Z,3.55
2024-04-18T21:49:09.597Z,3.53
2024-04-18T21:51:37.084Z,6.13
2024-04-18T21:54:04.943Z,4.13
2024-04-18T21:56:32.380Z,4.28
2024-04-18T21:59:00.274Z,5.20
2024-04-18T22:01:27.879Z,5.20
2024-04-18T22:03:55.892Z,4.68
2024-04-18T22:06:23.415Z,4.28
2024-04-18T22:08:51.264Z,5.05
2024-04-18T22:11:18.731Z,5.38
2024-04-18T22:13:46.889Z,4.63
2024-04-18T22:16:14.339Z,4.25
2024-04-18T22:18:42.283Z,4.60
2024-04-18T22:21:09.880Z,5.53
2024-04-18T22:23:37.948Z,5.97
2024-04-18T22:26:05.386Z,8.50
2024-04-18T22:28:33.288Z,4.45
2024-04-18T22:31:01.562Z,5.68
2024-04-18T22:33:29.642Z,6.40
2024-04-18T22:35:57.566Z,4.05
2024-04-18T22:38:25.391Z,5.40
2024-04-18T22:40:53.338Z,4.88
2024-04-18T22:43:21.181Z,5.50
2024-04-18T22:45:48.968Z,5.80
2024-04-18T22:48:17.038Z,6.47
2024-04-18T22:50:45.107Z,3.88
2024-04-18T22:53:12.990Z,5.70
2024-04-18T22:55:40.424Z,6.65
2024-04-18T22:58:09.210Z,4.32
2024-04-18T23:00:38.076Z,6.22
2024-04-18T23:03:07.321Z,6.47
2024-04-18T23:05:34.972Z,5.45
2024-04-18T23:08:03.526Z,7.43
2024-04-18T23:10:31.114Z,5.88
2024-04-18T23:12:59.014Z,5.60
2024-04-18T23:15:28.401Z,7.43
2024-04-18T23:17:56.417Z,4.85
2024-04-18T23:20:23.886Z,6.75
2024-04-18T23:22:51.725Z,7.97
2024-04-18T23:25:19.190Z,4.90
2024-04-18T23:27:48.285Z,5.88
2024-04-18T23:30:15.846Z,5.55
2024-04-18T23:32:43.732Z,5.43
2024-04-18T23:35:11.187Z,5.40
2024-04-18T23:37:39.063Z,5.60
2024-04-18T23:40:07.186Z,5.45
2024-04-18T23:42:35.124Z,4.95
2024-04-18T23:45:02.780Z,5.72
2024-04-18T23:47:30.744Z,6.47
2024-04-18T23:49:58.330Z,5.38
2024-04-18T23:52:26.186Z,5.63
2024-04-18T23:54:53.641Z,6.07
2024-04-18T23:57:22.532Z,7.05
2024-04-18T23:59:50.023Z,6.47
